Time,TemperatureF,DewpointF,PressureIn,WindDirection,WindDirectionDegrees,WindSpeedMPH,WindSpeedGustMPH,Humidity,HourlyPrecipIn,Conditions,Clouds,dailyrainin,SoftwareType,DateUTC
2013-01-23 00:10:00,13.7,10.8,30.33,ESE,113,0.0,0.0,88,0.00,,,0.00,Wunderground v.1.15,2013-01-23 06:10:00,
2013-01-23 00:20:00,14.1,11.5,30.32,ESE,113,0.0,0.0,89,0.00,,,0.00,Wunderground v.1.15,2013-01-23 06:20:00,
2013-01-23 00:30:00,13.9,11.3,30.32,ESE,113,0.0,0.0,89,0.00,,,0.00,Wunderground v.1.15,2013-01-23 06:30:00,
2013-01-23 00:40:00,14.3,11.9,30.32,ESE,113,0.0,0.0,90,0.00,,,0.00,Wunderground v.1.15,2013-01-23 06:40:00,
2013-01-23 00:50:00,14.2,11.8,30.32,ESE,113,0.0,0.0,90,0.00,,,0.00,Wunderground v.1.15,2013-01-23 06:50:00,
2013-01-23 01:00:00,14.1,11.5,30.32,ESE,113,0.0,0.0,89,0.00,,,0.00,Wunderground v.1.15,2013-01-23 07:00:00,
2013-01-23 01:10:00,13.8,11.2,30.32,ESE,113,0.0,0.0,89,0.00,,,0.00,Wunderground v.1.15,2013-01-23 07:10:00,
2013-01-23 01:20:00,13.7,11.1,30.31,ESE,113,0.0,0.0,89,0.00,,,0.00,Wunderground v.1.15,2013-01-23 07:20:00,
2013-01-23 01:30:00,13.4,10.5,30.31,ESE,113,0.0,0.0,88,0.00,,,0.00,Wunderground v.1.15,2013-01-23 07:30:00,
2013-01-23 01:40:00,13.0,10.6,30.30,ESE,113,0.0,0.0,90,0.00,,,0.00,Wunderground v.1.15,2013-01-23 07:40:00,
2013-01-23 01:50:00,12.9,10.5,30.29,ESE,113,0.0,0.0,90,0.00,,,0.00,Wunderground v.1.15,2013-01-23 07:50:00,
2013-01-23 02:00:00,13.0,10.6,30.29,ESE,113,0.0,0.0,90,0.00,,,0.00,Wunderground v.1.15,2013-01-23 08:00:00,
2013-01-23 02:10:00,13.3,10.9,30.29,ESE,113,0.0,0.0,90,0.00,,,0.00,Wunderground v.1.15,2013-01-23 08:10:00,
2013-01-23 02:20:00,13.7,11.3,30.29,ESE,113,0.0,0.0,90,0.00,,,0.00,Wunderground v.1.15,2013-01-23 08:20:00,
2013-01-23 02:30:00,13.6,11.2,30.30,ESE,113,0.0,0.0,90,0.00,,,0.00,Wunderground v.1.15,2013-01-23 08:30:00,
2013-01-23 02:40:00,13.9,11.8,30.29,ESE,113,0.0,0.0,91,0.00,,,0.00,Wunderground v.1.15,2013-01-23 08:40:00,
2013-01-23 02:50:00,14.0,11.6,30.29,ESE,113,0.0,0.0,90,0.00,,,0.00,Wunderground v.1.15,2013-01-23 08:50:00,
2013-01-23 03:00:00,14.1,11.7,30.29,ESE,110,0.0,0.0,90,0.00,,,0.00,Wunderground v.1.15,2013-01-23 09:00:00,
2013-01-23 03:10:00,14.1,11.5,30.29,ESE,110,0.0,0.0,89,0.00,,,0.00,Wunderground v.1.15,2013-01-23 09:10:00,
2013-01-23 03:20:00,14.1,11.5,30.29,ESE,110,0.0,0.0,89,0.00,,,0.00,Wunderground v.1.15,2013-01-23 09:20:00,
2013-01-23 03:30:00,14.0,11.4,30.28,ESE,110,0.0,0.0,89,0.00,,,0.00,Wunderground v.1.15,2013-01-23 09:30:00,
2013-01-23 03:40:00,13.9,11.3,30.28,ESE,110,0.0,0.0,89,0.00,,,0.00,Wunderground v.1.15,2013-01-23 09:40:00,
2013-01-23 03:50:00,13.7,11.1,30.27,ESE,110,0.0,0.0,89,0.00,,,0.00,Wunderground v.1.15,2013-01-23 09:50:00,
2013-01-23 04:00:00,13.4,10.8,30.27,ESE,110,0.0,0.0,89,0.00,,,0.00,Wunderground v.1.15,2013-01-23 10:00:00,
2013-01-23 04:10:00,13.3,10.9,30.27,ESE,110,0.0,0.0,90,0.00,,,0.00,Wunderground v.1.15,2013-01-23 10:10:00,
2013-01-23 04:20:00,13.3,10.9,30.27,ESE,110,0.0,0.0,90,0.00,,,0.00,Wunderground v.1.15,2013-01-23 10:20:00,
2013-01-23 04:30:00,13.1,10.7,30.26,ESE,110,0.0,0.0,90,0.00,,,0.00,Wunderground v.1.15,2013-01-23 10:30:00,
2013-01-23 04:40:00,13.0,10.6,30.27,ESE,110,0.0,0.0,90,0.00,,,0.00,Wunderground v.1.15,2013-01-23 10:40:00,
2013-01-23 04:50:00,12.6,10.2,30.27,ESE,110,0.0,0.0,90,0.00,,,0.00,Wunderground v.1.15,2013-01-23 10:50:00,
2013-01-23 05:00:00,12.3,9.9,30.27,ESE,110,0.0,0.0,90,0.00,,,0.00,Wunderground v.1.15,2013-01-23 11:00:00,
2013-01-23 05:10:00,11.8,9.2,30.26,ESE,110,0.0,0.0,89,0.00,,,0.00,Wunderground v.1.15,2013-01-23 11:10:00,
2013-01-23 05:20:00,11.8,9.7,30.27,ESE,110,0.0,0.0,91,0.00,,,0.00,Wunderground v.1.15,2013-01-23 11:20:00,
2013-01-23 05:30:00,11.8,9.7,30.27,ESE,110,0.0,0.0,91,0.00,,,0.00,Wunderground v.1.15,2013-01-23 11:30:00,
2013-01-23 05:40:00,11.4,9.0,30.27,ESE,110,0.0,0.0,90,0.00,,,0.00,Wunderground v.1.15,2013-01-23 11:40:00,
2013-01-23 05:50:00,11.3,9.2,30.28,ESE,110,0.0,0.0,91,0.00,,,0.00,Wunderground v.1.15,2013-01-23 11:50:00,
2013-01-23 06:00:00,11.6,9.5,30.27,SSE,157,0.0,0.0,91,0.00,,,0.00,Wunderground v.1.15,2013-01-23 12:00:00,
2013-01-23 06:10:00,11.5,9.1,30.27,SSE,156,0.0,0.0,90,0.00,,,0.00,Wunderground v.1.15,2013-01-23 12:10:00,
2013-01-23 06:20:00,11.3,8.9,30.26,SSE,156,0.0,0.0,90,0.00,,,0.00,Wunderground v.1.15,2013-01-23 12:20:00,
2013-01-23 06:30:00,11.1,9.0,30.26,SSE,157,0.0,0.0,91,0.00,,,0.00,Wunderground v.1.15,2013-01-23 12:30:00,
2013-01-23 06:40:00,11.3,9.2,30.25,SSE,167,1.0,2.0,91,0.00,,,0.00,Wunderground v.1.15,2013-01-23 12:40:00,
2013-01-23 06:50:00,11.4,9.3,30.26,WSW,256,1.0,1.0,91,0.00,,,0.00,Wunderground v.1.15,2013-01-23 12:50:00,
2013-01-23 07:00:00,11.8,9.7,30.26,West,263,1.0,1.0,91,0.00,,,0.00,Wunderground v.1.15,2013-01-23 13:00:00,
2013-01-23 07:10:00,11.7,9.3,30.26,West,263,0.0,0.0,90,0.00,,,0.00,Wunderground v.1.15,2013-01-23 13:10:00,
2013-01-23 07:20:00,11.5,9.1,30.27,West,263,0.0,0.0,90,0.00,,,0.00,Wunderground v.1.15,2013-01-23 13:20:00,
2013-01-23 07:30:00,11.2,8.8,30.26,West,263,0.0,0.0,90,0.00,,,0.00,Wunderground v.1.15,2013-01-23 13:30:00,
2013-01-23 07:40:00,11.3,9.2,30.25,SW,219,0.0,0.0,91,0.00,,,0.00,Wunderground v.1.15,2013-01-23 13:40:00,
2013-01-23 07:50:00,11.5,9.4,30.26,NNW,344,0.0,0.0,91,0.00,,,0.00,Wunderground v.1.15,2013-01-23 13:50:00,
2013-01-23 08:00:00,12.1,9.7,30.26,North,6,0.0,1.0,90,0.00,,,0.00,Wunderground v.1.15,2013-01-23 14:00:00,
2013-01-23 08:10:00,12.4,10.0,30.27,North,6,0.0,0.0,90,0.00,,,0.00,Wunderground v.1.15,2013-01-23 14:10:00,
2013-01-23 08:20:00,12.9,10.5,30.26,North,6,0.0,0.0,90,0.00,,,0.00,Wunderground v.1.15,2013-01-23 14:20:00,
2013-01-23 08:30:00,13.7,11.6,30.27,North,6,0.0,0.0,91,0.00,,,0.00,Wunderground v.1.15,2013-01-23 14:30:00,
2013-01-23 08:40:00,15.8,14.1,30.27,WNW,285,0.0,0.0,93,0.00,,,0.00,Wunderground v.1.15,2013-01-23 14:40:00,
2013-01-23 08:50:00,17.6,15.4,30.28,WSW,240,0.0,1.0,91,0.00,,,0.00,Wunderground v.1.15,2013-01-23 14:50:00,
2013-01-23 09:00:00,18.3,15.9,30.28,SW,220,1.0,1.0,90,0.00,,,0.00,Wunderground v.1.15,2013-01-23 15:00:00,
2013-01-23 09:10:00,19.2,16.7,30.28,SW,226,1.0,1.0,90,0.00,,,0.00,Wunderground v.1.15,2013-01-23 15:10:00,
2013-01-23 09:20:00,20.1,17.1,30.28,West,271,1.0,2.0,88,0.00,,,0.00,Wunderground v.1.15,2013-01-23 15:20:00,
2013-01-23 09:30:00,20.4,17.4,30.29,West,271,1.0,1.0,88,0.00,,,0.00,Wunderground v.1.15,2013-01-23 15:30:00,
2013-01-23 09:40:00,21.0,18.0,30.30,WSW,248,1.0,1.0,88,0.00,,,0.00,Wunderground v.1.15,2013-01-23 15:40:00,
2013-01-23 09:50:00,21.6,18.3,30.30,WSW,256,1.0,1.0,87,0.00,,,0.00,Wunderground v.1.15,2013-01-23 15:50:00,
2013-01-23 10:00:00,22.4,19.1,30.30,West,269,1.0,1.0,87,0.00,,,0.00,Wunderground v.1.15,2013-01-23 16:00:00,
2013-01-23 10:10:00,23.2,19.9,30.30,WNW,284,1.0,2.0,87,0.00,,,0.00,Wunderground v.1.15,2013-01-23 16:10:00,
2013-01-23 10:20:00,24.0,20.4,30.30,West,278,1.0,1.0,86,0.00,,,0.00,Wunderground v.1.15,2013-01-23 16:20:00,
2013-01-23 10:30:00,24.9,21.3,30.30,West,279,0.0,0.0,86,0.00,,,0.00,Wunderground v.1.15,2013-01-23 16:30:00,
2013-01-23 10:40:00,26.1,22.5,30.30,West,274,0.0,1.0,86,0.00,,,0.00,Wunderground v.1.15,2013-01-23 16:40:00,
2013-01-23 10:50:00,27.0,23.1,30.30,West,273,0.0,0.0,85,0.00,,,0.00,Wunderground v.1.15,2013-01-23 16:50:00,
2013-01-23 11:00:00,28.3,23.8,30.31,West,274,0.0,0.0,83,0.00,,,0.00,Wunderground v.1.15,2013-01-23 17:00:00,
2013-01-23 11:10:00,29.5,24.4,30.31,WNW,287,0.0,0.0,81,0.00,,,0.00,Wunderground v.1.15,2013-01-23 17:10:00,
2013-01-23 11:20:00,30.6,24.6,30.31,NNE,12,1.0,1.0,78,0.00,,,0.00,Wunderground v.1.15,2013-01-23 17:20:00,
2013-01-23 11:30:00,32.0,24.6,30.31,ESE,109,1.0,2.0,74,0.00,,,0.00,Wunderground v.1.15,2013-01-23 17:30:00,
2013-01-23 11:40:00,33.5,25.4,30.30,NE,43,1.0,2.0,72,0.00,,,0.00,Wunderground v.1.15,2013-01-23 17:40:00,
2013-01-23 11:50:00,34.3,25.5,30.30,NE,37,2.0,5.0,70,0.00,,,0.00,Wunderground v.1.15,2013-01-23 17:50:00,
2013-01-23 12:00:00,36.6,25.6,30.29,NNE,25,4.0,4.0,64,0.00,,,0.00,Wunderground v.1.15,2013-01-23 18:00:00,
2013-01-23 12:10:00,38.2,25.9,30.29,NNE,27,4.0,4.0,61,0.00,,,0.00,Wunderground v.1.15,2013-01-23 18:10:00,
2013-01-23 12:20:00,39.5,25.5,30.28,NE,42,4.0,4.0,57,0.00,,,0.00,Wunderground v.1.15,2013-01-23 18:20:00,
2013-01-23 12:30:00,40.4,25.9,30.29,NE,44,3.0,5.0,56,0.00,,,0.00,Wunderground v.1.15,2013-01-23 18:30:00,
2013-01-23 12:40:00,42.1,25.7,30.29,ENE,64,2.0,3.0,52,0.00,,,0.00,Wunderground v.1.15,2013-01-23 18:40:00,
2013-01-23 12:50:00,42.8,26.4,30.28,SE,127,3.0,3.0,52,0.00,,,0.00,Wunderground v.1.15,2013-01-23 18:50:00,
2013-01-23 13:00:00,42.9,26.0,30.27,ESE,122,2.0,4.0,51,0.00,,,0.00,Wunderground v.1.15,2013-01-23 19:00:00,
2013-01-23 13:10:00,42.8,25.9,30.27,SE,127,2.0,2.0,51,0.00,,,0.00,Wunderground v.1.15,2013-01-23 19:10:00,
2013-01-23 13:20:00,43.5,26.1,30.27,ESE,110,2.0,2.0,50,0.00,,,0.00,Wunderground v.1.15,2013-01-23 19:20:00,
2013-01-23 13:30:00,43.9,24.4,30.27,North,349,4.0,4.0,46,0.00,,,0.00,Wunderground v.1.15,2013-01-23 19:30:00,
2013-01-23 13:40:00,44.5,25.0,30.27,NNW,344,3.0,3.0,46,0.00,,,0.00,Wunderground v.1.15,2013-01-23 19:40:00,
2013-01-23 13:50:00,45.1,25.0,30.27,NNE,23,4.0,5.0,45,0.00,,,0.00,Wunderground v.1.15,2013-01-23 19:50:00,
2013-01-23 14:00:00,45.2,24.6,30.27,East,98,5.0,5.0,44,0.00,,,0.00,Wunderground v.1.15,2013-01-23 20:00:00,
2013-01-23 14:10:00,44.7,24.1,30.27,NNE,29,4.0,4.0,44,0.00,,,0.00,Wunderground v.1.15,2013-01-23 20:10:00,
2013-01-23 14:20:00,45.0,24.9,30.27,NNE,33,4.0,6.0,45,0.00,,,0.00,Wunderground v.1.15,2013-01-23 20:20:00,
2013-01-23 14:30:00,45.1,25.0,30.27,NE,50,6.0,6.0,45,0.00,,,0.00,Wunderground v.1.15,2013-01-23 20:30:00,
2013-01-23 14:40:00,44.2,24.7,30.27,NNE,12,6.0,9.0,46,0.00,,,0.00,Wunderground v.1.15,2013-01-23 20:40:00,
2013-01-23 14:50:00,43.9,24.4,30.27,NE,50,6.0,6.0,46,0.00,,,0.00,Wunderground v.1.15,2013-01-23 20:50:00,
2013-01-23 15:00:00,43.5,23.5,30.28,NE,46,5.0,5.0,45,0.00,,,0.00,Wunderground v.1.15,2013-01-23 21:00:00,
2013-01-23 15:10:00,43.0,23.6,30.28,NE,40,7.0,7.0,46,0.00,,,0.00,Wunderground v.1.15,2013-01-23 21:10:00,
2013-01-23 15:20:00,42.7,23.3,30.29,NNE,30,6.0,6.0,46,0.00,,,0.00,Wunderground v.1.15,2013-01-23 21:20:00,
2013-01-23 15:30:00,42.9,23.5,30.29,NE,34,7.0,7.0,46,0.00,,,0.00,Wunderground v.1.15,2013-01-23 21:30:00,
2013-01-23 15:40:00,42.2,23.4,30.29,NE,42,7.0,7.0,47,0.00,,,0.00,Wunderground v.1.15,2013-01-23 21:40:00,
2013-01-23 15:50:00,41.4,23.2,30.31,North,359,8.0,8.0,48,0.00,,,0.00,Wunderground v.1.15,2013-01-23 21:50:00,
2013-01-23 16:00:00,40.1,23.9,30.32,NNE,20,8.0,8.0,52,0.00,,,0.00,Wunderground v.1.15,2013-01-23 22:00:00,
2013-01-23 16:10:00,38.8,23.6,30.32,North,359,6.0,6.0,54,0.00,,,0.00,Wunderground v.1.15,2013-01-23 22:10:00,
2013-01-23 16:20:00,37.6,23.3,30.33,NE,34,7.0,8.0,56,0.00,,,0.00,Wunderground v.1.15,2013-01-23 22:20:00,
2013-01-23 16:30:00,36.9,23.1,30.33,NNE,27,6.0,6.0,57,0.00,,,0.00,Wunderground v.1.15,2013-01-23 22:30:00,
2013-01-23 16:40:00,36.3,23.3,30.34,ENE,60,7.0,9.0,59,0.00,,,0.00,Wunderground v.1.15,2013-01-23 22:40:00,
2013-01-23 16:50:00,35.6,23.1,30.34,NNE,19,7.0,7.0,60,0.00,,,0.00,Wunderground v.1.15,2013-01-23 22:50:00,
2013-01-23 17:00:00,35.1,23.0,30.35,ENE,60,7.0,7.0,61,0.00,,,0.00,Wunderground v.1.15,2013-01-23 23:00:00,
2013-01-23 17:10:00,34.5,22.8,30.35,NE,43,6.0,6.0,62,0.00,,,0.00,Wunderground v.1.15,2013-01-23 23:10:00,
2013-01-23 17:20:00,34.1,22.8,30.36,NE,45,6.0,9.0,63,0.00,,,0.00,Wunderground v.1.15,2013-01-23 23:20:00,
2013-01-23 17:30:00,33.7,23.2,30.36,North,9,7.0,9.0,65,0.00,,,0.00,Wunderground v.1.15,2013-01-23 23:30:00,
2013-01-23 17:40:00,33.2,23.1,30.37,NE,48,5.0,6.0,66,0.00,,,0.00,Wunderground v.1.15,2013-01-23 23:40:00,
2013-01-23 17:50:00,32.7,22.9,30.37,NNE,19,4.0,4.0,67,0.00,,,0.00,Wunderground v.1.15,2013-01-23 23:50:00,
2013-01-23 18:00:00,32.1,22.7,30.38,NE,40,3.0,4.0,68,0.00,,,0.00,Wunderground v.1.15,2013-01-24 00:00:00,
2013-01-23 18:10:00,31.5,22.5,30.38,NE,49,3.0,4.0,69,0.00,,,0.00,Wunderground v.1.15,2013-01-24 00:10:00,
2013-01-23 18:20:00,30.9,22.3,30.39,NE,41,3.0,4.0,70,0.00,,,0.00,Wunderground v.1.15,2013-01-24 00:20:00,
2013-01-23 18:30:00,30.2,22.3,30.39,East,83,3.0,3.0,72,0.00,,,0.00,Wunderground v.1.15,2013-01-24 00:30:00,
2013-01-23 18:40:00,29.7,22.1,30.40,NE,47,2.0,2.0,73,0.00,,,0.00,Wunderground v.1.15,2013-01-24 00:40:00,
2013-01-23 18:50:00,29.3,22.0,30.40,NNE,19,2.0,3.0,74,0.00,,,0.00,Wunderground v.1.15,2013-01-24 00:50:00,
2013-01-23 19:00:00,29.1,21.8,30.41,NE,41,2.0,2.0,74,0.00,,,0.00,Wunderground v.1.15,2013-01-24 01:00:00,
2013-01-23 19:10:00,28.6,21.7,30.42,NNE,32,2.0,2.0,75,0.00,,,0.00,Wunderground v.1.15,2013-01-24 01:10:00,
2013-01-23 19:20:00,28.2,21.6,30.42,NNE,32,1.0,3.0,76,0.00,,,0.00,Wunderground v.1.15,2013-01-24 01:20:00,
2013-01-23 19:30:00,28.2,21.6,30.42,NNE,33,4.0,4.0,76,0.00,,,0.00,Wunderground v.1.15,2013-01-24 01:30:00,
2013-01-23 19:40:00,28.1,21.5,30.43,NE,49,2.0,3.0,76,0.00,,,0.00,Wunderground v.1.15,2013-01-24 01:40:00,
2013-01-23 19:50:00,28.1,20.9,30.42,NE,47,4.0,5.0,74,0.00,,,0.00,Wunderground v.1.15,2013-01-24 01:50:00,
2013-01-23 20:00:00,28.1,19.9,30.44,NNE,13,6.0,6.0,71,0.00,,,0.00,Wunderground v.1.15,2013-01-24 02:00:00,
2013-01-23 20:10:00,27.7,18.8,30.44,NE,37,7.0,7.0,69,0.00,,,0.00,Wunderground v.1.15,2013-01-24 02:10:00,
2013-01-23 20:20:00,27.4,18.9,30.45,ENE,60,6.0,6.0,70,0.00,,,0.00,Wunderground v.1.15,2013-01-24 02:20:00,
2013-01-23 20:30:00,27.0,18.5,30.47,NNE,18,6.0,6.0,70,0.00,,,0.00,Wunderground v.1.15,2013-01-24 02:30:00,
2013-01-23 20:40:00,26.6,18.5,30.46,NE,41,5.0,5.0,71,0.00,,,0.00,Wunderground v.1.15,2013-01-24 02:40:00,
2013-01-23 20:50:00,26.2,18.1,30.46,NE,38,5.0,5.0,71,0.00,,,0.00,Wunderground v.1.15,2013-01-24 02:50:00,
2013-01-23 21:00:00,25.9,17.8,30.46,North,3,6.0,6.0,71,0.00,,,0.00,Wunderground v.1.15,2013-01-24 03:00:00,
2013-01-23 21:10:00,25.7,17.9,30.47,ENE,69,6.0,6.0,72,0.00,,,0.00,Wunderground v.1.15,2013-01-24 03:10:00,
2013-01-23 21:20:00,25.4,17.6,30.46,NE,52,6.0,6.0,72,0.00,,,0.00,Wunderground v.1.15,2013-01-24 03:20:00,
2013-01-23 21:30:00,25.2,17.8,30.47,North,352,4.0,4.0,73,0.00,,,0.00,Wunderground v.1.15,2013-01-24 03:30:00,
2013-01-23 21:40:00,24.9,17.5,30.46,NNE,32,4.0,4.0,73,0.00,,,0.00,Wunderground v.1.15,2013-01-24 03:40:00,
2013-01-23 21:50:00,24.6,16.2,30.47,SE,126,5.0,5.0,70,0.00,,,0.00,Wunderground v.1.15,2013-01-24 03:50:00,
2013-01-23 22:00:00,24.3,15.9,30.49,NE,42,7.0,8.0,70,0.00,,,0.00,Wunderground v.1.15,2013-01-24 04:00:00,
2013-01-23 22:10:00,24.0,15.3,30.49,NE,38,7.0,7.0,69,0.00,,,0.00,Wunderground v.1.15,2013-01-24 04:10:00,
2013-01-23 22:20:00,23.6,14.6,30.50,NW,315,6.0,6.0,68,0.00,,,0.00,Wunderground v.1.15,2013-01-24 04:20:00,
2013-01-23 22:30:00,23.2,13.9,30.50,NE,43,6.0,12.0,67,0.00,,,0.00,Wunderground v.1.15,2013-01-24 04:30:00,
2013-01-23 22:40:00,22.8,13.1,30.51,NE,43,7.0,7.0,66,0.00,,,0.00,Wunderground v.1.15,2013-01-24 04:40:00,
2013-01-23 22:50:00,22.5,12.1,30.51,North,1,6.0,6.0,64,0.00,,,0.00,Wunderground v.1.15,2013-01-24 04:50:00,
2013-01-23 23:00:00,22.1,11.8,30.51,North,354,6.0,6.0,64,0.00,,,0.00,Wunderground v.1.15,2013-01-24 05:00:00,
2013-01-23 23:20:00,21.2,11.3,30.51,NE,56,4.0,4.0,65,0.00,,,0.00,Wunderground v.1.15,2013-01-24 05:20:00,
2013-01-23 23:30:00,20.8,10.5,30.51,NNE,29,4.0,4.0,64,0.00,,,0.00,Wunderground v.1.15,2013-01-24 05:30:00,
2013-01-23 23:40:00,20.4,9.8,30.50,NNW,347,5.0,6.0,63,0.00,,,0.00,Wunderground v.1.15,2013-01-24 05:40:00,
2013-01-23 23:50:00,20.2,9.6,30.52,NNE,18,6.0,9.0,63,0.00,,,0.00,Wunderground v.1.15,2013-01-24 05:50:00,